Time;durP1;ratioP1;P1;durP2;ratioP2;P2;SDS_P1;SDS_P2;PMS_P1;PMS_P2;Temp;Humidity;BMP_temperature;BMP_pressure;BME280_temperature;BME280_humidity;BME280_pressure;Samples;Min_cycle;Max_cycle;Signal;HPM_P1;HPM_P2
2022/06/23 00:01:44;;;;;;;18.08;14.38;;;20.60;99.90;;;;;;5096317;28;20032;-67
2022/06/23 00:04:15;;;;;;;21.98;14.40;;;20.80;99.90;;;;;;5096331;28;20028;-68
2022/06/23 00:07:06;;;;;;;24.25;14.10;;;20.80;99.90;;;;;;5096341;28;20027;-68
2022/06/23 00:09:34;;;;;;;30.35;14.52;;;20.80;99.90;;;;;;5088562;28;20032;-67
2022/06/23 00:12:13;;;;;;;16.63;12.98;;;20.70;99.90;;;;;;5078762;28;20050;-67
2022/06/23 00:14:38;;;;;;;19.50;13.13;;;20.60;99.90;;;;;;5078662;28;20020;-67
2022/06/23 00:17:30;;;;;;;19.15;13.05;;;20.50;99.90;;;;;;5096850;28;20353;-67
2022/06/23 00:20:00;;;;;;;17.80;12.45;;;20.50;99.90;;;;;;5078080;28;20533;-67
2022/06/23 00:22:29;;;;;;;18.77;12.77;;;20.40;99.90;;;;;;5096830;28;20036;-68
2022/06/23 00:24:57;;;;;;;20.55;12.50;;;20.40;99.90;;;;;;5096293;28;20020;-67
2022/06/23 00:27:44;;;;;;;22.40;14.18;;;20.50;99.90;;;;;;5095439;28;20028;-67
2022/06/23 00:30:38;;;;;;;16.98;13.23;;;20.50;99.90;;;;;;5096274;28;20016;-68
2022/06/23 00:33:28;;;;;;;18.52;12.68;;;20.40;99.90;;;;;;5089457;28;20514;-67
2022/06/23 00:35:56;;;;;;;17.17;11.90;;;20.30;99.90;;;;;;5096494;28;20028;-67
2022/06/23 00:38:29;;;;;;;16.08;11.20;;;20.30;99.90;;;;;;5096449;28;20020;-68
2022/06/23 00:40:56;;;;;;;17.75;12.23;;;20.30;99.90;;;;;;5096259;28;20563;-67
2022/06/23 00:43:23;;;;;;;17.50;11.60;;;20.30;99.90;;;;;;5077600;28;20038;-67
2022/06/23 00:46:05;;;;;;;17.27;12.10;;;20.30;99.90;;;;;;5078034;28;20020;-66
2022/06/23 00:48:46;;;;;;;16.30;10.60;;;20.30;99.90;;;;;;5096243;28;20020;-67
2022/06/23 00:51:20;;;;;;;20.52;11.77;;;20.30;99.90;;;;;;5095903;28;20028;-67
2022/06/23 00:54:12;;;;;;;15.23;11.52;;;20.50;99.90;;;;;;5096070;28;20024;-68
2022/06/23 00:57:02;;;;;;;15.05;10.10;;;20.50;99.90;;;;;;5095965;28;20012;-68
2022/06/23 00:59:40;;;;;;;17.15;10.38;;;20.50;99.90;;;;;;5096040;28;20020;-68
2022/06/23 01:02:09;;;;;;;15.27;10.40;;;20.50;99.90;;;;;;5095590;28;20052;-67
2022/06/23 01:04:59;;;;;;;16.85;10.23;;;20.50;99.90;;;;;;5096816;28;20024;-68
2022/06/23 01:07:42;;;;;;;19.50;10.90;;;20.70;99.90;;;;;;5097214;28;20028;-68
2022/06/23 01:10:14;;;;;;;20.52;11.48;;;20.70;99.90;;;;;;5096983;28;20554;-68
2022/06/23 01:12:45;;;;;;;16.95;10.48;;;20.60;99.90;;;;;;5098025;28;20035;-67
2022/06/23 01:15:11;;;;;;;13.77;10.20;;;20.50;99.90;;;;;;5099652;28;20040;-67
2022/06/23 01:17:59;;;;;;;18.05;11.27;;;20.50;99.90;;;;;;5097920;28;20044;-67
2022/06/23 01:20:24;;;;;;;21.15;12.95;;;20.50;99.90;;;;;;5095375;28;20035;-67
2022/06/23 01:22:50;;;;;;;16.63;11.48;;;20.60;99.90;;;;;;5095002;28;20024;-67
2022/06/23 01:25:27;;;;;;;23.38;12.18;;;20.50;99.90;;;;;;5094716;28;20017;-67
2022/06/23 01:27:56;;;;;;;19.10;12.07;;;20.50;99.90;;;;;;5094956;28;20024;-67
2022/06/23 01:30:22;;;;;;;19.75;11.50;;;20.50;99.90;;;;;;5094482;28;20032;-67
2022/06/23 01:33:04;;;;;;;20.13;11.95;;;20.50;99.90;;;;;;5094821;28;20020;-67
2022/06/23 01:35:38;;;;;;;17.50;12.60;;;20.40;99.90;;;;;;5076520;28;20027;-67
2022/06/23 01:38:15;;;;;;;23.90;13.77;;;20.40;99.90;;;;;;5093612;28;20027;-67
2022/06/23 01:40:43;;;;;;;;;;;20.30;99.90;;;;;;5094935;28;20028;-66
2022/06/23 01:45:54;;;;;;;19.67;14.63;;;20.30;99.90;;;;;;5112583;22;20130;-61
2022/06/23 01:48:51;;;;;;;26.90;16.50;;;20.40;99.90;;;;;;5094435;28;20091;-62
2022/06/23 01:51:31;;;;;;;24.88;17.15;;;20.40;99.90;;;;;;5093966;28;20571;-62
2022/06/23 01:54:08;;;;;;;24.95;16.95;;;20.30;99.90;;;;;;5094622;28;20039;-62
2022/06/23 01:56:36;;;;;;;28.90;18.83;;;20.30;99.90;;;;;;5095020;28;20372;-60
2022/06/23 01:59:26;;;;;;;27.92;19.85;;;20.40;99.90;;;;;;5095043;28;20068;-62
2022/06/23 02:02:10;;;;;;;31.77;21.33;;;20.30;99.90;;;;;;5076388;28;20422;-62
2022/06/23 02:04:44;;;;;;;30.98;21.63;;;20.20;99.90;;;;;;5094324;28;20093;-62
2022/06/23 02:07:36;;;;;;;30.52;21.10;;;20.10;99.90;;;;;;5076178;28;20077;-62
2022/06/23 02:10:27;;;;;;;33.30;22.38;;;20.10;99.90;;;;;;5095086;28;20024;-62
2022/06/23 02:13:11;;;;;;;38.28;24.65;;;20.00;99.90;;;;;;5086380;28;20067;-61
2022/06/23 02:15:55;;;;;;;33.67;23.08;;;19.90;99.90;;;;;;5095918;28;20028;-61
2022/06/23 02:18:30;;;;;;;35.55;22.55;;;19.90;99.90;;;;;;5076884;28;20028;-61
2022/06/23 02:21:16;;;;;;;37.08;21.92;;;19.80;99.90;;;;;;5094634;28;20368;-61
2022/06/23 02:23:51;;;;;;;36.07;22.63;;;19.90;99.90;;;;;;5095981;28;20020;-59
2022/06/23 02:26:30;;;;;;;29.02;21.50;;;19.90;99.90;;;;;;5077471;28;20030;-62
2022/06/23 02:29:13;;;;;;;31.15;20.10;;;19.90;99.90;;;;;;5077981;28;20459;-59
2022/06/23 02:31:47;;;;;;;28.25;19.92;;;19.80;99.90;;;;;;5095544;28;20029;-62
2022/06/23 02:34:35;;;;;;;30.50;20.02;;;19.80;99.90;;;;;;5094497;28;20027;-62
2022/06/23 02:37:27;;;;;;;29.13;21.35;;;19.80;99.90;;;;;;5095092;28;20024;-61
2022/06/23 02:39:57;;;;;;;33.05;21.20;;;19.70;99.90;;;;;;5093937;28;20028;-63
2022/06/23 02:42:32;;;;;;;36.85;20.80;;;19.70;99.90;;;;;;5094054;28;20069;-61
2022/06/23 02:45:26;;;;;;;33.35;20.73;;;19.70;99.90;;;;;;5093675;28;20039;-62
2022/06/23 02:48:21;;;;;;;35.38;22.10;;;19.70;99.90;;;;;;5080543;28;20066;-60
2022/06/23 02:51:25;;;;;;;35.63;22.48;;;19.60;99.90;;;;;;5090979;28;20043;-61
2022/06/23 02:54:18;;;;;;;32.75;20.80;;;19.60;99.90;;;;;;5094110;28;20016;-62
2022/06/23 02:56:54;;;;;;;32.47;21.23;;;19.70;99.90;;;;;;5094152;28;20387;-62
2022/06/23 02:59:45;;;;;;;35.03;21.10;;;19.80;99.90;;;;;;5094184;28;20463;-62
2022/06/23 03:02:13;;;;;;;25.52;19.55;;;19.90;99.90;;;;;;5094512;28;20024;-62
2022/06/23 03:04:47;;;;;;;30.55;20.88;;;19.90;99.90;;;;;;5094070;28;20028;-62
2022/06/23 03:07:25;;;;;;;31.67;21.45;;;19.80;99.90;;;;;;5093872;28;20068;-61
2022/06/23 03:10:07;;;;;;;28.65;20.52;;;19.80;99.90;;;;;;5093338;28;20031;-61
2022/06/23 03:12:55;;;;;;;30.38;20.60;;;19.70;99.90;;;;;;5093708;28;20456;-62
2022/06/23 03:15:39;;;;;;;28.02;19.90;;;19.60;99.90;;;;;;5093546;28;20111;-62
2022/06/23 03:18:16;;;;;;;28.88;19.65;;;19.60;99.90;;;;;;5093663;28;20017;-60
2022/06/23 03:20:55;;;;;;;26.38;18.23;;;19.50;99.90;;;;;;5093322;28;20048;-61
2022/06/23 03:23:29;;;;;;;22.35;16.40;;;19.50;99.90;;;;;;5093665;28;20028;-62
2022/06/23 03:26:15;;;;;;;30.38;17.25;;;19.50;99.90;;;;;;5075012;28;20085;-62
2022/06/23 03:28:46;;;;;;;22.67;16.20;;;19.40;99.90;;;;;;5093150;28;20056;-59
2022/06/23 03:31:25;;;;;;;25.85;16.60;;;19.50;99.90;;;;;;5093192;28;20388;-60
2022/06/23 03:34:01;;;;;;;24.95;17.05;;;19.40;99.90;;;;;;5093286;28;20050;-61
2022/06/23 03:36:49;;;;;;;26.35;15.05;;;19.40;99.90;;;;;;5075265;28;20119;-62
2022/06/23 03:42:17;;;;;;;21.45;13.85;;;19.40;99.90;;;;;;5093163;28;20089;-62
2022/06/23 03:44:55;;;;;;;20.33;13.15;;;19.40;99.90;;;;;;5074696;28;20111;-62
2022/06/23 03:47:43;;;;;;;20.27;12.75;;;19.40;99.90;;;;;;5093380;28;20035;-63
2022/06/23 03:50:23;;;;;;;19.45;11.68;;;19.50;99.90;;;;;;5093304;28;20043;-61
2022/06/23 03:52:57;;;;;;;18.80;11.30;;;19.60;99.90;;;;;;5093047;28;20058;-62
2022/06/23 03:55:36;;;;;;;17.80;11.00;;;19.60;99.90;;;;;;5092453;28;20099;-62
2022/06/23 03:58:15;;;;;;;18.15;10.48;;;19.50;99.90;;;;;;5092749;28;20021;-62
2022/06/23 04:00:52;;;;;;;14.63;8.70;;;19.50;99.90;;;;;;5093189;28;20039;-62
2022/06/23 04:03:30;;;;;;;17.00;9.18;;;19.50;99.90;;;;;;5096319;28;20472;-63
2022/06/23 04:05:55;;;;;;;16.17;8.80;;;19.50;99.90;;;;;;5096623;28;20032;-62
2022/06/23 04:08:23;;;;;;;12.80;7.47;;;19.50;99.90;;;;;;5096349;28;20111;-63
2022/06/23 04:10:51;;;;;;;16.50;8.68;;;19.40;99.90;;;;;;5078361;28;20024;-62
2022/06/23 04:13:25;;;;;;;14.13;8.40;;;19.50;99.90;;;;;;5096329;28;20062;-62
2022/06/23 04:15:55;;;;;;;12.18;7.82;;;19.50;99.90;;;;;;5096186;28;20433;-62
2022/06/23 04:18:24;;;;;;;13.13;8.02;;;19.40;99.90;;;;;;5078824;28;20472;-63
2022/06/23 04:21:10;;;;;;;16.02;7.93;;;19.40;99.90;;;;;;5097489;28;20081;-64
2022/06/23 04:23:39;;;;;;;14.33;7.17;;;19.50;99.90;;;;;;5096294;28;20044;-64
2022/06/23 04:26:06;;;;;;;15.23;6.88;;;19.50;99.90;;;;;;5096023;28;20274;-64
2022/06/23 04:28:43;;;;;;;11.23;6.72;;;19.50;99.90;;;;;;5096175;28;20489;-61
2022/06/23 04:31:14;;;;;;;13.50;6.30;;;19.60;99.90;;;;;;5096452;28;20329;-62
2022/06/23 04:33:40;;;;;;;13.35;5.72;;;19.60;99.90;;;;;;5095855;28;20028;-62
2022/06/23 04:36:21;;;;;;;11.63;6.10;;;19.60;99.90;;;;;;5095646;28;20017;-62
2022/06/23 04:38:51;;;;;;;13.52;6.38;;;19.60;99.90;;;;;;5077287;28;20089;-62
2022/06/23 04:41:27;;;;;;;11.93;6.07;;;19.70;99.90;;;;;;5095321;28;20081;-62
2022/06/23 04:43:57;;;;;;;16.05;7.20;;;19.70;99.90;;;;;;5095458;28;20101;-62
2022/06/23 04:46:28;;;;;;;12.07;6.30;;;19.80;99.90;;;;;;5095330;28;20032;-62
2022/06/23 04:49:00;;;;;;;13.82;6.75;;;19.80;99.90;;;;;;5077069;28;20451;-62
2022/06/23 04:51:26;;;;;;;14.77;6.95;;;19.80;99.90;;;;;;5076868;28;20406;-61
2022/06/23 04:54:04;;;;;;;13.73;6.25;;;19.90;99.90;;;;;;5095249;28;20036;-63
2022/06/23 04:56:43;;;;;;;14.10;6.72;;;19.90;99.90;;;;;;5095384;28;20020;-63
2022/06/23 04:59:28;;;;;;;16.63;7.72;;;19.90;99.90;;;;;;5095041;28;20107;-62
2022/06/23 05:01:56;;;;;;;14.70;6.82;;;20.00;99.90;;;;;;5077000;28;20024;-65
2022/06/23 05:04:38;;;;;;;11.40;6.68;;;20.00;99.90;;;;;;5076649;28;20032;-61
2022/06/23 05:07:13;;;;;;;8.70;6.35;;;20.10;99.90;;;;;;5095137;28;20028;-61
2022/06/23 05:09:41;;;;;;;13.88;6.22;;;20.10;99.90;;;;;;5094844;28;20020;-61
2022/06/23 05:12:21;;;;;;;8.60;5.30;;;20.20;99.90;;;;;;5076470;28;20028;-60
2022/06/23 05:15:01;;;;;;;16.58;6.10;;;20.20;99.90;;;;;;5094643;28;20064;-62
2022/06/23 05:17:31;;;;;;;11.75;4.97;;;20.40;99.90;;;;;;5076576;28;20127;-62
2022/06/23 05:20:01;;;;;;;10.85;5.43;;;20.50;99.90;;;;;;5094548;28;20020;-61
2022/06/23 05:22:32;;;;;;;11.00;4.68;;;20.50;99.90;;;;;;5095214;28;20036;-67
2022/06/23 05:25:09;;;;;;;11.45;4.72;;;20.50;99.90;;;;;;5094795;28;20028;-62
2022/06/23 05:27:35;;;;;;;13.55;4.30;;;20.50;99.90;;;;;;5095028;28;20206;-62
2022/06/23 05:30:29;;;;;;;9.15;4.78;;;20.50;99.90;;;;;;5076284;28;20024;-61
2022/06/23 05:33:00;;;;;;;13.57;3.90;;;20.60;99.90;;;;;;5093021;28;20040;-63
2022/06/23 05:35:51;;;;;;;12.48;4.43;;;20.60;99.90;;;;;;5073945;28;20032;-62
2022/06/23 05:38:46;;;;;;;10.07;3.58;;;20.70;99.90;;;;;;5092403;28;20067;-62
2022/06/23 05:41:16;;;;;;;9.48;4.53;;;20.80;99.90;;;;;;5092811;28;20024;-61
2022/06/23 05:43:42;;;;;;;7.70;3.38;;;20.80;99.90;;;;;;5092598;28;20028;-63
2022/06/23 05:46:16;;;;;;;10.13;3.92;;;20.80;99.90;;;;;;5092693;28;20028;-63
2022/06/23 05:48:43;;;;;;;7.18;3.42;;;20.80;99.90;;;;;;5093818;28;20066;-62
2022/06/23 05:51:19;;;;;;;11.32;3.80;;;20.80;99.90;;;;;;5093922;28;20020;-61
2022/06/23 05:53:53;;;;;;;8.32;3.63;;;20.80;99.90;;;;;;5094938;28;20464;-61
2022/06/23 05:56:23;;;;;;;9.80;4.03;;;21.00;99.90;;;;;;5094400;28;20028;-62
2022/06/23 05:58:55;;;;;;;9.10;3.50;;;21.10;99.90;;;;;;5094226;28;20434;-61
2022/06/23 06:01:40;;;;;;;7.63;3.55;;;21.30;99.90;;;;;;5094361;28;20024;-62
2022/06/23 06:04:22;;;;;;;7.85;3.15;;;21.30;99.90;;;;;;5094024;28;20073;-60
2022/06/23 06:06:49;;;;;;;9.70;4.07;;;21.20;99.90;;;;;;5075847;28;20028;-62
2022/06/23 06:09:35;;;;;;;8.38;2.90;;;21.20;99.90;;;;;;5094112;28;20035;-61
2022/06/23 06:12:06;;;;;;;7.70;3.42;;;21.20;99.90;;;;;;5094589;28;20067;-61
2022/06/23 06:14:38;;;;;;;8.60;3.20;;;21.20;99.90;;;;;;5093884;28;20511;-62
2022/06/23 06:17:05;;;;;;;22.30;3.88;;;21.30;99.90;;;;;;5094132;28;20012;-61
2022/06/23 06:19:33;;;;;;;6.35;2.65;;;21.30;99.90;;;;;;5075397;28;20020;-61
2022/06/23 06:22:14;;;;;;;11.75;4.47;;;21.30;99.90;;;;;;5093803;28;20028;-62
2022/06/23 06:24:45;;;;;;;9.32;3.33;;;21.30;99.90;;;;;;5093122;28;20094;-62
2022/06/23 06:27:12;;;;;;;11.32;4.97;;;21.30;99.90;;;;;;5093989;28;20440;-62
2022/06/23 06:29:43;;;;;;;7.63;3.17;;;21.40;99.90;;;;;;5093565;28;20028;-63
2022/06/23 06:32:29;;;;;;;9.93;3.30;;;21.50;99.90;;;;;;5093681;28;20024;-62
2022/06/23 06:35:22;;;;;;;7.25;2.50;;;21.60;99.90;;;;;;5093445;28;20023;-63
2022/06/23 06:37:51;;;;;;;10.15;2.97;;;21.70;99.90;;;;;;5093884;28;20107;-62
2022/06/23 06:40:18;;;;;;;5.57;3.08;;;21.70;99.90;;;;;;5093646;28;20107;-62
2022/06/23 06:42:47;;;;;;;8.15;3.58;;;21.80;99.90;;;;;;5094022;28;20047;-62
2022/06/23 06:45:17;;;;;;;6.53;3.33;;;21.80;99.90;;;;;;5093337;28;20153;-62
2022/06/23 06:47:44;;;;;;;6.53;2.65;;;21.90;99.90;;;;;;5093686;28;20028;-62
2022/06/23 06:50:19;;;;;;;9.05;3.30;;;22.10;99.90;;;;;;5075607;28;20435;-62
2022/06/23 06:52:49;;;;;;;6.80;2.90;;;22.10;99.90;;;;;;5093777;28;20060;-62
2022/06/23 06:55:32;;;;;;;9.82;3.83;;;22.20;99.90;;;;;;5093480;28;20388;-62
2022/06/23 06:58:08;;;;;;;6.03;2.67;;;22.20;99.90;;;;;;5075302;28;20026;-61
2022/06/23 07:00:52;;;;;;;11.88;4.55;;;22.30;99.90;;;;;;5093687;28;20016;-62
2022/06/23 07:03:22;;;;;;;7.75;2.83;;;22.30;99.90;;;;;;5075493;28;20025;-62
2022/06/23 07:06:05;;;;;;;9.50;3.22;;;22.30;99.90;;;;;;5093442;28;20020;-61
2022/06/23 07:08:50;;;;;;;8.07;2.83;;;22.40;99.90;;;;;;5093444;28;20031;-62
2022/06/23 07:11:23;;;;;;;7.80;3.00;;;22.50;99.90;;;;;;5078576;28;20027;-62
2022/06/23 07:13:59;;;;;;;6.18;3.00;;;22.60;99.90;;;;;;5099851;28;20028;-62
2022/06/23 07:16:39;;;;;;;8.63;3.17;;;22.80;99.90;;;;;;5093791;28;20043;-61
2022/06/23 07:19:13;;;;;;;9.85;3.17;;;22.90;99.90;;;;;;5093544;28;20490;-61
2022/06/23 07:22:11;;;;;;;6.40;2.90;;;23.10;99.90;;;;;;5093352;28;20028;-61
2022/06/23 07:24:48;;;;;;;7.25;2.45;;;23.10;99.90;;;;;;5093108;28;20042;-62
2022/06/23 07:27:30;;;;;;;5.30;2.25;;;23.20;99.90;;;;;;5093442;28;20050;-62
2022/06/23 07:30:27;;;;;;;9.38;2.92;;;23.30;99.90;;;;;;5093338;28;20032;-61
2022/06/23 07:33:05;;;;;;;6.38;2.70;;;23.40;99.90;;;;;;5092153;28;20043;-61
2022/06/23 07:35:52;;;;;;;7.35;2.50;;;23.60;99.90;;;;;;5093424;28;20103;-61
2022/06/23 07:38:34;;;;;;;10.35;3.03;;;23.70;99.90;;;;;;5097181;28;20438;-60
2022/06/23 07:41:07;;;;;;;10.80;3.13;;;23.90;99.90;;;;;;5097051;28;20449;-62
2022/06/23 07:43:54;;;;;;;8.80;3.40;;;24.10;99.90;;;;;;5097291;28;20028;-61
2022/06/23 07:46:20;;;;;;;7.32;2.72;;;24.60;99.90;;;;;;5133795;22;20379;-65
2022/06/23 07:48:46;;;;;;;;;;;26.10;99.90;;;;;;5116725;28;20020;-66
2022/06/23 07:51:13;;;;;;;8.60;2.42;;;27.70;99.90;;;;;;5117286;28;19907;-66
2022/06/23 07:53:42;;;;;;;4.85;2.42;;;29.30;99.60;;;;;;5117203;28;20424;-65
2022/06/23 07:56:16;;;;;;;8.23;2.47;;;29.50;98.00;;;;;;5118388;28;20084;-66
2022/06/23 07:58:43;;;;;;;7.22;2.30;;;29.90;97.20;;;;;;5117251;28;20019;-65
2022/06/23 08:01:31;;;;;;;7.65;2.92;;;30.10;97.00;;;;;;5117686;28;20030;-65
2022/06/23 08:04:14;;;;;;;8.57;3.15;;;29.60;97.00;;;;;;5115490;28;20023;-65
2022/06/23 08:06:40;;;;;;;8.18;2.88;;;28.70;97.80;;;;;;5117113;28;20020;-65
2022/06/23 08:09:23;;;;;;;9.55;3.47;;;28.70;98.40;;;;;;5117135;28;20114;-66
2022/06/23 08:14:49;;;;;;;8.43;3.03;;;32.30;94.50;;;;;;5117372;28;20108;-65
2022/06/23 08:17:17;;;;;;;8.98;2.67;;;33.80;92.20;;;;;;5116442;28;20069;-66
2022/06/23 08:19:56;;;;;;;13.25;2.90;;;35.00;89.90;;;;;;5116450;28;20016;-66
2022/06/23 08:22:28;;;;;;;8.13;2.92;;;34.90;85.80;;;;;;5115109;28;20049;-67
2022/06/23 08:24:57;;;;;;;5.70;2.55;;;34.90;85.20;;;;;;5116191;28;20084;-65
2022/06/23 08:27:28;;;;;;;7.88;2.72;;;35.60;81.80;;;;;;5116579;28;20020;-66
2022/06/23 08:30:02;;;;;;;8.90;3.40;;;36.40;81.10;;;;;;5116288;28;20023;-66
2022/06/23 08:32:30;;;;;;;4.85;2.67;;;37.70;77.60;;;;;;5116187;28;20035;-66
2022/06/23 08:35:07;;;;;;;5.35;2.45;;;38.60;74.70;;;;;;5115729;28;20019;-67
2022/06/23 08:37:39;;;;;;;6.28;2.70;;;39.40;69.90;;;;;;5114498;28;20383;-66
2022/06/23 08:40:33;;;;;;;12.57;4.18;;;39.50;67.10;;;;;;5114772;28;20384;-66
2022/06/23 08:43:21;;;;;;;9.40;2.60;;;40.00;66.20;;;;;;5115969;28;20520;-66
2022/06/23 08:46:06;;;;;;;7.22;2.33;;;38.30;65.70;;;;;;5115466;28;20035;-66
2022/06/23 08:49:00;;;;;;;8.02;2.88;;;36.60;67.80;;;;;;5115747;28;20076;-67
2022/06/23 08:52:03;;;;;;;4.97;2.50;;;36.80;68.30;;;;;;5115942;28;20034;-66
2022/06/23 08:54:28;;;;;;;7.18;2.25;;;37.80;67.50;;;;;;5114191;28;20026;-66
2022/06/23 08:57:10;;;;;;;8.57;2.70;;;38.20;66.70;;;;;;5114192;28;20020;-66
2022/06/23 09:00:11;;;;;;;9.60;2.65;;;37.80;66.30;;;;;;5115627;28;20023;-66
2022/06/23 09:02:55;;;;;;;7.68;2.60;;;37.60;66.00;;;;;;5093037;28;20116;-65
2022/06/23 09:05:59;;;;;;;8.77;2.80;;;37.40;66.60;;;;;;5092845;28;20103;-65
2022/06/23 09:08:48;;;;;;;4.55;2.40;;;37.20;67.20;;;;;;5072478;28;20101;-66
2022/06/23 09:11:43;;;;;;;5.65;2.50;;;38.00;65.90;;;;;;5092906;28;20028;-66
2022/06/23 09:14:30;;;;;;;9.07;2.85;;;38.10;65.70;;;;;;5091647;28;20043;-65
2022/06/23 09:17:25;;;;;;;8.00;2.78;;;37.20;67.00;;;;;;5093032;28;20035;-66
2022/06/23 09:20:01;;;;;;;9.50;3.20;;;35.80;69.30;;;;;;5076133;28;20032;-66
2022/06/23 09:23:18;;;;;;;7.47;2.60;;;35.50;70.90;;;;;;5093126;28;20028;-66
2022/06/23 09:26:06;;;;;;;8.02;3.03;;;37.10;69.40;;;;;;5052858;28;20517;-66
2022/06/23 09:28:57;;;;;;;8.00;2.60;;;37.70;68.30;;;;;;5092634;28;20602;-66
2022/06/23 09:31:40;;;;;;;7.13;2.72;;;37.80;67.00;;;;;;5093156;28;20393;-66
2022/06/23 09:34:45;;;;;;;7.38;2.83;;;36.80;68.90;;;;;;5093100;28;20028;-65
2022/06/23 09:37:32;;;;;;;8.25;2.88;;;37.70;67.70;;;;;;5094516;28;20089;-66
2022/06/23 09:40:29;;;;;;;8.27;3.00;;;37.70;67.60;;;;;;5115014;28;20024;-66
2022/06/23 09:43:16;;;;;;;7.70;3.13;;;38.20;66.90;;;;;;5114635;28;20163;-66
2022/06/23 09:45:59;;;;;;;7.95;3.10;;;37.50;66.10;;;;;;5114337;28;20031;-65
2022/06/23 09:48:46;;;;;;;14.85;3.72;;;36.20;68.90;;;;;;5114612;28;20103;-65
2022/06/23 09:51:32;;;;;;;7.13;3.00;;;37.10;68.40;;;;;;5114323;28;20474;-66
2022/06/23 09:54:29;;;;;;;8.52;3.10;;;37.70;67.40;;;;;;5113020;28;20030;-66
2022/06/23 09:57:03;;;;;;;6.72;2.92;;;38.60;66.10;;;;;;5113195;28;20383;-66
2022/06/23 09:59:57;;;;;;;11.38;6.43;;;38.90;64.70;;;;;;5113803;28;20058;-66
2022/06/23 10:02:36;;;;;;;7.50;2.90;;;39.50;64.30;;;;;;5114343;28;20030;-65
2022/06/23 10:05:26;;;;;;;8.00;2.70;;;39.40;63.30;;;;;;5114748;28;20024;-66
2022/06/23 10:08:13;;;;;;;6.78;3.15;;;38.80;64.30;;;;;;5114093;28;20073;-66
2022/06/23 10:10:47;;;;;;;8.32;3.55;;;38.40;64.50;;;;;;5114872;28;20425;-67
2022/06/23 10:13:26;;;;;;;8.43;3.53;;;38.80;64.60;;;;;;5114465;28;20073;-66
2022/06/23 10:16:16;;;;;;;9.35;3.33;;;39.20;63.40;;;;;;5114792;28;20039;-67
2022/06/23 10:18:53;;;;;;;7.38;2.85;;;40.10;63.00;;;;;;5114488;28;20076;-66
2022/06/23 10:21:37;;;;;;;9.85;3.33;;;41.00;61.20;;;;;;5114880;28;20472;-66
2022/06/23 10:24:30;;;;;;;5.88;3.13;;;37.80;63.80;;;;;;5112893;28;20042;-66
2022/06/23 10:27:10;;;;;;;7.70;2.67;;;37.50;65.00;;;;;;5114754;28;20027;-67
2022/06/23 10:29:48;;;;;;;10.55;3.20;;;37.00;65.30;;;;;;5118068;28;20110;-66
2022/06/23 10:32:55;;;;;;;6.72;3.08;;;36.90;65.90;;;;;;5115507;28;20476;-66
2022/06/23 10:35:32;;;;;;;10.20;2.70;;;37.60;65.30;;;;;;5114262;28;20023;-66
2022/06/23 10:38:20;;;;;;;9.23;3.05;;;38.60;64.10;;;;;;5112542;28;20027;-66
2022/06/23 10:41:09;;;;;;;9.30;2.72;;;38.30;62.90;;;;;;5114169;28;20035;-66
2022/06/23 10:43:57;;;;;;;9.15;2.90;;;37.70;63.80;;;;;;5114568;28;20080;-67
2022/06/23 10:46:30;;;;;;;8.95;3.47;;;39.10;62.70;;;;;;5113906;28;20088;-66
2022/06/23 10:49:24;;;;;;;6.90;2.75;;;38.00;63.60;;;;;;5114311;28;20016;-67
2022/06/23 10:52:11;;;;;;;7.47;3.30;;;37.10;64.80;;;;;;5113992;28;20096;-66
2022/06/23 10:54:45;;;;;;;6.90;2.70;;;35.20;67.70;;;;;;5112636;28;20023;-66
2022/06/23 10:57:36;;;;;;;13.00;3.25;;;33.00;71.20;;;;;;5114159;28;20111;-65
2022/06/23 11:00:23;;;;;;;7.50;2.85;;;32.90;72.30;;;;;;5114103;28;20020;-66
2022/06/23 11:03:01;;;;;;;10.30;2.78;;;33.90;71.30;;;;;;5114074;28;20026;-67
2022/06/23 11:05:26;;;;;;;11.00;3.22;;;35.50;69.30;;;;;;5113907;28;20035;-65
2022/06/23 11:08:12;;;;;;;7.60;2.83;;;35.50;67.80;;;;;;5115023;28;20024;-68
2022/06/23 11:10:46;;;;;;;8.88;2.83;;;34.30;70.40;;;;;;5121243;28;20016;-66
2022/06/23 11:13:41;;;;;;;9.55;2.97;;;32.80;72.70;;;;;;5121974;28;20112;-66
2022/06/23 11:16:35;;;;;;;8.60;2.90;;;32.60;73.20;;;;;;5119942;28;20027;-66
2022/06/23 11:19:19;;;;;;;10.00;3.53;;;32.30;73.70;;;;;;5119898;28;20065;-66
2022/06/23 11:22:12;;;;;;;8.70;2.75;;;31.70;75.00;;;;;;5119190;28;20211;-66
2022/06/23 11:24:43;;;;;;;9.15;2.95;;;31.30;76.20;;;;;;5117370;28;20496;-64
2022/06/23 11:27:35;;;;;;;6.88;2.97;;;31.40;76.20;;;;;;5117310;28;20143;-63
2022/06/23 11:30:14;;;;;;;8.88;2.78;;;31.10;76.30;;;;;;5117447;28;20020;-63
2022/06/23 11:33:10;;;;;;;9.43;3.05;;;30.80;76.70;;;;;;5115959;28;20102;-63
2022/06/23 11:36:14;;;;;;;9.32;2.70;;;30.90;77.10;;;;;;5115975;28;20522;-64
2022/06/23 11:38:50;;;;;;;10.75;2.70;;;31.00;77.40;;;;;;5110137;28;20494;-65
2022/06/23 11:41:38;;;;;;;7.38;2.60;;;30.50;78.30;;;;;;5115898;28;20027;-65
2022/06/23 11:44:34;;;;;;;6.25;2.90;;;30.50;78.10;;;;;;5117343;28;20077;-66
2022/06/23 11:47:18;;;;;;;10.90;3.15;;;30.10;78.70;;;;;;5115980;28;20444;-65
2022/06/23 11:50:06;;;;;;;12.82;3.05;;;29.90;78.80;;;;;;5117277;28;20379;-65
2022/06/23 11:52:42;;;;;;;6.82;2.20;;;29.90;79.30;;;;;;5117486;28;20015;-67
2022/06/23 11:55:34;;;;;;;12.43;3.10;;;29.90;78.40;;;;;;5117294;28;20034;-67
2022/06/23 11:58:28;;;;;;;11.30;3.00;;;29.80;79.70;;;;;;5115378;28;20016;-67
2022/06/23 12:01:11;;;;;;;10.13;2.60;;;30.10;80.20;;;;;;5116874;28;20443;-67
2022/06/23 12:04:02;;;;;;;8.05;2.60;;;30.00;79.70;;;;;;5116714;28;20047;-66
2022/06/23 12:06:48;;;;;;;10.73;2.72;;;30.10;79.60;;;;;;5116782;28;20031;-66
2022/06/23 12:09:29;;;;;;;6.72;3.10;;;30.10;79.50;;;;;;5115445;28;20034;-64
2022/06/23 12:11:57;;;;;;;9.38;2.95;;;30.10;79.70;;;;;;5116768;28;20041;-64
2022/06/23 12:14:24;;;;;;;7.47;2.67;;;30.30;79.10;;;;;;5117017;28;20456;-64
2022/06/23 12:16:57;;;;;;;11.52;2.67;;;30.20;78.60;;;;;;5116809;28;20027;-69
2022/06/23 12:19:34;;;;;;;8.25;2.83;;;30.10;78.90;;;;;;5117203;28;20053;-68
2022/06/23 12:22:10;;;;;;;9.45;2.50;;;30.10;79.00;;;;;;5116139;28;20023;-68
2022/06/23 12:24:43;;;;;;;9.48;2.67;;;29.80;79.70;;;;;;5116259;28;20032;-68
2022/06/23 12:27:41;;;;;;;8.98;3.30;;;29.90;80.10;;;;;;5116988;28;20023;-69
2022/06/23 12:30:18;;;;;;;7.28;2.88;;;29.70;80.20;;;;;;5116436;28;20047;-67
2022/06/23 12:32:49;;;;;;;10.93;3.17;;;29.80;80.50;;;;;;5116445;28;20378;-67
2022/06/23 12:35:24;;;;;;;7.80;2.47;;;29.90;80.20;;;;;;5114968;28;20043;-67
2022/06/23 12:38:08;;;;;;;8.98;2.90;;;30.00;79.80;;;;;;5115003;28;20110;-67
2022/06/23 12:40:50;;;;;;;11.30;2.72;;;29.80;79.50;;;;;;5117028;28;20027;-69
2022/06/23 12:43:47;;;;;;;9.15;2.80;;;30.00;79.10;;;;;;5114824;28;20500;-68
2022/06/23 12:46:34;;;;;;;11.02;3.00;;;29.90;78.90;;;;;;5116115;28;20088;-67
2022/06/23 12:49:05;;;;;;;13.38;3.13;;;30.00;79.10;;;;;;5121745;28;20111;-67
2022/06/23 12:51:45;;;;;;;8.88;2.65;;;30.20;78.90;;;;;;5118587;28;20035;-65
2022/06/23 12:54:53;;;;;;;8.00;3.10;;;30.30;78.80;;;;;;5116267;28;20045;-66
2022/06/23 12:57:30;;;;;;;12.32;2.85;;;30.50;78.70;;;;;;5115781;28;20106;-68
2022/06/23 13:00:05;;;;;;;10.32;3.13;;;30.60;77.90;;;;;;5116022;28;20032;-67
2022/06/23 13:02:37;;;;;;;7.63;2.88;;;30.50;78.50;;;;;;5116368;28;20019;-64
2022/06/23 13:05:12;;;;;;;9.68;2.65;;;30.60;78.40;;;;;;5114572;28;20488;-68
2022/06/23 13:07:45;;;;;;;10.32;2.92;;;30.80;77.50;;;;;;5116800;28;20031;-67
2022/06/23 13:10:25;;;;;;;9.00;3.13;;;30.70;77.90;;;;;;5114691;28;20027;-68
2022/06/23 13:13:11;;;;;;;7.57;2.70;;;30.70;77.90;;;;;;5116172;28;20055;-68
2022/06/23 13:15:54;;;;;;;10.70;2.85;;;30.60;77.00;;;;;;5116117;28;20045;-67
2022/06/23 13:18:32;;;;;;;10.45;3.03;;;30.60;77.30;;;;;;5116638;28;20028;-68
2022/06/23 13:21:19;;;;;;;9.05;2.50;;;30.70;77.40;;;;;;5114565;28;20103;-69
2022/06/23 13:23:48;;;;;;;9.50;3.28;;;30.80;77.00;;;;;;5115667;28;20031;-68
2022/06/23 13:26:21;;;;;;;18.23;3.97;;;30.90;76.80;;;;;;5115431;28;20447;-65
2022/06/23 13:28:52;;;;;;;8.95;2.63;;;30.90;77.90;;;;;;5115330;28;20044;-66
2022/06/23 13:31:40;;;;;;;11.88;3.00;;;30.80;76.30;;;;;;5113793;28;20509;-66
2022/06/23 13:34:16;;;;;;;6.55;2.15;;;30.80;77.30;;;;;;5114175;28;20356;-65
2022/06/23 13:36:45;;;;;;;;;;;30.80;76.50;;;;;;5115864;28;20047;-66
2022/06/23 13:39:53;;;;;;;10.40;3.22;;;30.60;76.20;;;;;;5115116;28;19907;-66
2022/06/23 13:42:37;;;;;;;;;;;30.70;76.30;;;;;;5105145;28;20039;-65
2022/06/23 13:45:22;;;;;;;10.13;2.72;;;30.80;76.10;;;;;;5115657;28;20385;-64
2022/06/23 13:48:05;;;;;;;10.02;2.97;;;30.90;75.40;;;;;;5115058;28;20028;-66
2022/06/23 13:50:54;;;;;;;5.22;2.28;;;30.90;75.40;;;;;;5115005;28;20094;-66
2022/06/23 13:53:30;;;;;;;14.43;3.10;;;30.90;75.10;;;;;;5113318;28;20043;-66